CheckWX is a tool to help pilots better visualize weather data.  It is not intended as a substitute for an official pre-flight weather briefing.

20:00:07 UTC

OEDF TAF
King Fahd International Airport
Ad Dammam, Saudi Arabia
TAF OEDF 251400Z 2518/2624 28008KT 8000 NSC BECMG 2604/2606 35015G25KT

Jun-25@
18:00 UTC

Jun-25 @ 18:00 UTC

Jun-26@
04:00 UTC

Jun-26 @ 04:00 UTC

TAF OEDF 251400Z 2518/2624 28008KT 8000 NSC
Wind
  • 280° at 8 KTS
Cloud Levels
  • No significant clouds

Jun-26@
04:00 UTC

Jun-26 @ 04:00 UTC

Jun-27@
00:00 UTC

Jun-27 @ 00:00 UTC

BECMG 2604/2606 35015G25KT

Becoming

Becoming Conditions expected by Wed, Jun 26, 2019 @ 06:00 UTC

Wind
  • 350° at 15 KTS
  • {Gusting to 25 KTS
Cloud Levels
  • No significant clouds